createdAt,value
2022-09-16T00:00:57.462Z,2.90
2022-09-16T00:03:28.231Z,2.40
2022-09-16T00:05:59.734Z,2.20
2022-09-16T00:08:30.475Z,3.80
2022-09-16T00:11:04.155Z,2.80
2022-09-16T00:13:34.806Z,3.20
2022-09-16T00:16:11.088Z,2.10
2022-09-16T00:18:41.937Z,3.30
2022-09-16T00:21:13.268Z,1.80
2022-09-16T00:23:44.072Z,2.40
2022-09-16T00:26:14.782Z,2.20
2022-09-16T00:28:45.677Z,1.50
2022-09-16T00:31:16.686Z,1.90
2022-09-16T00:33:47.569Z,2.80
2022-09-16T00:36:22.408Z,2.60
2022-09-16T00:38:55.944Z,2.70
2022-09-16T00:44:00.318Z,2.00
2022-09-16T00:46:37.280Z,1.90
2022-09-16T00:49:14.625Z,2.10
2022-09-16T00:51:47.939Z,2.60
2022-09-16T00:54:20.079Z,1.90
2022-09-16T00:56:55.753Z,1.80
2022-09-16T00:59:30.055Z,1.80
2022-09-16T01:02:06.117Z,1.90
2022-09-16T01:04:41.941Z,3.30
2022-09-16T01:07:12.678Z,2.40
2022-09-16T01:09:44.057Z,2.00
2022-09-16T01:12:14.695Z,2.40
2022-09-16T01:14:54.699Z,1.30
2022-09-16T01:17:36.802Z,2.30
2022-09-16T01:20:39.206Z,2.40
2022-09-16T01:23:29.371Z,1.50
2022-09-16T01:26:21.950Z,2.20
2022-09-16T01:29:13.655Z,1.40
2022-09-16T01:31:49.136Z,2.10
2022-09-16T01:34:27.259Z,3.30
2022-09-16T01:37:05.221Z,2.00
2022-09-16T01:39:47.730Z,2.50
2022-09-16T01:42:31.703Z,1.50
2022-09-16T01:45:08.319Z,2.30
2022-09-16T01:47:52.234Z,1.90
2022-09-16T01:50:28.768Z,1.70
2022-09-16T01:53:08.304Z,1.80
2022-09-16T01:55:43.825Z,1.20
2022-09-16T01:58:24.013Z,1.80
2022-09-16T02:01:00.731Z,1.40
2022-09-16T02:03:35.385Z,1.50
2022-09-16T02:06:10.192Z,1.60
2022-09-16T02:08:47.886Z,1.90
2022-09-16T02:11:21.323Z,3.30
2022-09-16T02:13:56.250Z,1.70
2022-09-16T02:16:31.105Z,1.80
2022-09-16T02:19:11.079Z,1.70
2022-09-16T02:21:45.830Z,1.10
2022-09-16T02:24:20.855Z,1.30
2022-09-16T02:27:00.822Z,1.20
2022-09-16T02:29:39.004Z,1.60
2022-09-16T02:32:13.327Z,1.40
2022-09-16T02:34:47.920Z,1.50
2022-09-16T02:37:23.414Z,1.10
2022-09-16T02:40:02.504Z,1.90
2022-09-16T02:42:33.777Z,1.00
2022-09-16T02:45:06.474Z,2.10
2022-09-16T02:47:47.362Z,1.80
2022-09-16T02:50:24.426Z,1.40
2022-09-16T02:53:00.653Z,2.00
2022-09-16T02:55:43.733Z,1.90
2022-09-16T02:58:14.550Z,1.70
2022-09-16T03:00:49.568Z,1.60
2022-09-16T03:03:20.529Z,1.60
2022-09-16T03:06:12.430Z,1.30
2022-09-16T03:08:45.312Z,1.90
2022-09-16T03:11:30.425Z,1.90
2022-09-16T03:14:22.603Z,3.70
2022-09-16T03:17:07.577Z,1.70
2022-09-16T03:19:48.298Z,1.70
2022-09-16T03:22:32.141Z,1.00
2022-09-16T03:25:12.663Z,1.10
2022-09-16T03:27:49.535Z,1.20
2022-09-16T03:30:21.899Z,1.80
2022-09-16T03:32:58.279Z,1.50
2022-09-16T03:35:32.881Z,1.10
2022-09-16T03:38:05.044Z,1.50
2022-09-16T03:40:37.411Z,2.10
2022-09-16T03:43:16.167Z,2.10
2022-09-16T03:45:47.141Z,3.80
2022-09-16T03:48:17.846Z,1.80
2022-09-16T03:50:48.538Z,1.10
2022-09-16T03:53:20.096Z,1.40
2022-09-16T03:55:52.548Z,1.20
2022-09-16T03:58:23.182Z,0.80
2022-09-16T04:00:54.200Z,1.70
2022-09-16T04:03:24.911Z,2.10
2022-09-16T04:05:57.670Z,4.30
2022-09-16T04:08:28.326Z,8.70
2022-09-16T04:11:00.680Z,5.50
2022-09-16T04:13:33.223Z,4.60
2022-09-16T04:16:05.535Z,5.00
2022-09-16T04:18:37.879Z,3.50
2022-09-16T04:21:08.700Z,4.90
2022-09-16T04:23:39.727Z,5.90
2022-09-16T04:26:11.709Z,9.30
2022-09-16T04:28:42.341Z,3.70
2022-09-16T04:31:15.821Z,4.70
2022-09-16T04:36:17.527Z,4.00
2022-09-16T04:38:49.943Z,2.50
2022-09-16T04:41:23.205Z,2.40
2022-09-16T04:43:56.246Z,1.90
2022-09-16T04:46:28.720Z,4.10
2022-09-16T04:49:00.139Z,1.90
2022-09-16T04:51:32.333Z,4.30
2022-09-16T04:54:03.034Z,2.40
2022-09-16T04:56:35.431Z,3.00
2022-09-16T04:59:07.985Z,2.60
2022-09-16T05:01:40.760Z,1.60
2022-09-16T05:04:12.530Z,2.00
2022-09-16T05:06:44.583Z,2.50
2022-09-16T05:09:15.888Z,2.70
2022-09-16T05:11:46.588Z,2.10
2022-09-16T05:14:19.379Z,1.40
2022-09-16T05:16:50.518Z,1.30
2022-09-16T05:19:21.421Z,1.30
2022-09-16T05:21:52.362Z,1.80
2022-09-16T05:24:23.034Z,2.30
2022-09-16T05:26:53.633Z,1.10
2022-09-16T05:29:24.581Z,1.80
2022-09-16T05:31:55.765Z,1.00
2022-09-16T05:34:28.670Z,1.60
2022-09-16T05:37:00.644Z,2.70
2022-09-16T05:39:31.310Z,2.80
2022-09-16T05:42:04.861Z,1.60
2022-09-16T05:44:35.472Z,1.40
2022-09-16T05:47:06.794Z,1.60
2022-09-16T05:49:37.692Z,1.80
2022-09-16T05:52:08.735Z,0.90
2022-09-16T05:54:39.376Z,1.50
2022-09-16T05:57:10.104Z,1.20
2022-09-16T05:59:40.845Z,0.80
2022-09-16T06:02:13.344Z,1.40
2022-09-16T06:04:44.181Z,1.10
2022-09-16T06:07:14.956Z,1.40
2022-09-16T06:09:46.353Z,1.20
2022-09-16T06:12:17.192Z,1.30
2022-09-16T06:14:47.917Z,2.40
2022-09-16T06:17:19.174Z,2.10
2022-09-16T06:19:49.899Z,3.50
2022-09-16T06:22:20.616Z,1.60
2022-09-16T06:24:52.220Z,1.30
2022-09-16T06:27:23.281Z,1.60
2022-09-16T06:29:53.978Z,2.10
2022-09-16T06:32:24.977Z,1.30
2022-09-16T06:34:55.682Z,1.40
2022-09-16T06:37:27.131Z,1.50
2022-09-16T06:39:57.829Z,1.80
2022-09-16T06:42:29.224Z,2.60
2022-09-16T06:45:00.170Z,1.40
2022-09-16T06:47:33.440Z,1.10
2022-09-16T06:50:05.706Z,3.00
2022-09-16T06:52:36.444Z,1.10
2022-09-16T06:55:08.204Z,1.30
2022-09-16T06:57:39.028Z,2.10
2022-09-16T07:00:13.409Z,1.50
2022-09-16T07:02:44.415Z,1.30
2022-09-16T07:05:15.236Z,1.20
2022-09-16T07:07:45.914Z,1.80
2022-09-16T07:10:16.787Z,1.30
2022-09-16T07:12:47.593Z,1.20
2022-09-16T07:15:18.539Z,2.30
2022-09-16T07:17:49.172Z,1.30
2022-09-16T07:20:19.913Z,1.70
2022-09-16T07:22:54.059Z,0.80
2022-09-16T07:25:24.970Z,1.40
2022-09-16T07:27:55.693Z,1.20
2022-09-16T07:30:28.442Z,1.10
2022-09-16T07:32:59.231Z,1.00
2022-09-16T07:35:29.881Z,1.20
2022-09-16T07:38:01.425Z,1.50
2022-09-16T07:40:32.393Z,2.90
2022-09-16T07:43:03.206Z,1.60
2022-09-16T07:45:34.074Z,1.50
2022-09-16T07:48:05.550Z,1.60
2022-09-16T07:50:36.301Z,2.30
2022-09-16T07:53:07.305Z,2.10
2022-09-16T07:55:38.944Z,2.90
2022-09-16T07:58:09.680Z,2.20
2022-09-16T08:00:40.680Z,1.70
2022-09-16T08:03:11.541Z,2.30
2022-09-16T08:05:44.690Z,1.00
2022-09-16T08:08:15.619Z,1.40
2022-09-16T08:10:53.612Z,1.90
2022-09-16T08:13:24.773Z,1.60
2022-09-16T08:15:56.538Z,1.30
2022-09-16T08:18:27.453Z,2.40
2022-09-16T08:20:59.527Z,1.10
2022-09-16T08:23:31.387Z,1.30
2022-09-16T08:26:02.537Z,1.70
2022-09-16T08:28:45.116Z,1.90
2022-09-16T08:31:24.617Z,2.50
2022-09-16T08:33:55.897Z,1.80
2022-09-16T08:36:27.659Z,1.10
2022-09-16T08:38:59.271Z,1.20
2022-09-16T08:42:00.764Z,1.00
2022-09-16T08:44:41.834Z,1.90
2022-09-16T08:47:26.265Z,1.80
2022-09-16T08:50:00.244Z,1.70
2022-09-16T08:52:33.833Z,1.70
2022-09-16T08:57:41.657Z,1.40
2022-09-16T09:00:17.111Z,1.70
2022-09-16T09:02:54.314Z,1.00
2022-09-16T09:05:32.582Z,2.80
2022-09-16T09:08:21.216Z,1.10
2022-09-16T09:10:54.796Z,1.60
2022-09-16T09:16:22.467Z,1.40
2022-09-16T09:19:03.389Z,1.00
2022-09-16T09:21:42.937Z,1.40
2022-09-16T09:24:32.091Z,1.30
2022-09-16T09:27:12.720Z,1.50
2022-09-16T09:30:04.220Z,1.50
2022-09-16T09:32:50.023Z,1.80
2022-09-16T09:35:34.449Z,1.70
2022-09-16T09:38:29.712Z,2.20
2022-09-16T09:41:06.930Z,1.40
2022-09-16T09:43:42.534Z,1.40
2022-09-16T09:46:19.137Z,1.80
2022-09-16T09:48:54.952Z,2.10
2022-09-16T09:51:31.155Z,1.60
2022-09-16T09:54:06.627Z,1.10
2022-09-16T09:56:42.972Z,0.90
2022-09-16T09:59:26.463Z,1.20
2022-09-16T10:02:01.935Z,1.00
2022-09-16T10:04:38.161Z,1.30
2022-09-16T10:07:10.335Z,2.80
2022-09-16T10:09:51.256Z,2.60
2022-09-16T10:12:32.860Z,1.90
2022-09-16T10:15:05.184Z,1.30
2022-09-16T10:17:36.615Z,1.80
2022-09-16T10:20:26.984Z,1.00
2022-09-16T10:23:04.838Z,1.90
2022-09-16T10:25:36.399Z,1.60
2022-09-16T10:28:20.049Z,1.50
2022-09-16T10:30:53.532Z,1.70
2022-09-16T10:33:29.353Z,1.40
2022-09-16T10:36:03.868Z,1.40
2022-09-16T10:38:41.517Z,1.20
2022-09-16T10:41:19.161Z,1.20
2022-09-16T10:43:54.611Z,1.30
2022-09-16T10:46:26.324Z,0.70
2022-09-16T10:49:02.020Z,1.30
2022-09-16T10:51:35.008Z,1.80
2022-09-16T10:54:07.231Z,1.00
2022-09-16T10:56:50.269Z,1.10
2022-09-16T10:59:21.446Z,0.80
2022-09-16T11:02:00.970Z,2.00
2022-09-16T11:07:32.047Z,1.00
2022-09-16T11:10:11.121Z,1.20
2022-09-16T11:13:11.787Z,1.00
2022-09-16T11:16:01.225Z,2.30
2022-09-16T11:18:50.745Z,0.80
2022-09-16T11:21:38.622Z,1.40
2022-09-16T11:24:28.261Z,1.40
2022-09-16T11:27:06.730Z,1.50
2022-09-16T11:30:03.389Z,1.40
2022-09-16T11:32:50.532Z,1.00
2022-09-16T11:35:42.018Z,0.90
2022-09-16T11:38:23.669Z,1.20
2022-09-16T11:41:01.917Z,1.40
2022-09-16T11:43:53.498Z,1.70
2022-09-16T11:46:35.285Z,2.40
2022-09-16T11:49:38.825Z,1.10
2022-09-16T11:52:27.418Z,1.00
2022-09-16T11:55:16.445Z,1.90
2022-09-16T11:57:53.602Z,0.90
2022-09-16T12:00:25.928Z,1.10
2022-09-16T12:03:02.666Z,0.90
2022-09-16T12:05:38.583Z,1.30
2022-09-16T12:08:23.029Z,1.60
2022-09-16T12:10:57.129Z,2.20
2022-09-16T12:13:31.301Z,1.10
2022-09-16T12:16:06.991Z,1.50
2022-09-16T12:18:43.119Z,1.10
2022-09-16T12:21:21.167Z,1.40
2022-09-16T12:23:57.665Z,0.70
2022-09-16T12:26:33.374Z,1.10
2022-09-16T12:29:08.516Z,2.10
2022-09-16T12:31:45.141Z,0.90
2022-09-16T12:34:19.816Z,1.70
2022-09-16T12:36:57.331Z,2.00
2022-09-16T12:39:28.862Z,1.50
2022-09-16T12:42:35.522Z,1.50
2022-09-16T12:45:27.644Z,0.80
2022-09-16T12:48:14.667Z,1.10
2022-09-16T12:51:01.555Z,0.60
2022-09-16T12:54:06.216Z,1.30
2022-09-16T12:56:49.557Z,2.60
2022-09-16T12:59:53.493Z,1.80
2022-09-16T13:04:58.957Z,1.70
2022-09-16T13:07:34.743Z,1.20
2022-09-16T13:10:09.074Z,1.00
2022-09-16T13:12:44.456Z,1.40
2022-09-16T13:15:29.702Z,1.20
2022-09-16T13:18:11.537Z,1.50
2022-09-16T13:20:51.903Z,1.40
2022-09-16T13:23:27.356Z,1.10
2022-09-16T13:26:02.521Z,2.50
2022-09-16T13:28:41.633Z,1.30
2022-09-16T13:31:34.040Z,2.10
2022-09-16T13:34:19.165Z,2.50
2022-09-16T13:36:50.155Z,0.80
2022-09-16T13:39:32.164Z,1.30
2022-09-16T13:42:21.557Z,0.60
2022-09-16T13:44:52.515Z,2.20
2022-09-16T13:47:40.497Z,1.00
2022-09-16T13:50:17.457Z,1.00
2022-09-16T13:52:49.162Z,1.20
2022-09-16T13:55:25.785Z,0.90
2022-09-16T13:58:03.133Z,1.00
2022-09-16T14:00:39.096Z,1.90
2022-09-16T14:03:41.910Z,1.00
2022-09-16T14:06:46.975Z,0.80
2022-09-16T14:09:29.535Z,3.90
2022-09-16T14:12:10.337Z,2.20
2022-09-16T14:14:49.402Z,1.80
2022-09-16T14:17:25.302Z,0.70
2022-09-16T14:20:00.797Z,5.50
2022-09-16T14:22:31.878Z,2.50
2022-09-16T14:25:12.846Z,3.30
2022-09-16T14:27:50.444Z,4.50
2022-09-16T14:30:22.816Z,6.70
2022-09-16T14:32:53.968Z,13.10
2022-09-16T14:35:27.304Z,10.60
2022-09-16T14:38:03.370Z,8.70
2022-09-16T14:40:34.475Z,6.20
2022-09-16T14:43:07.776Z,5.30
2022-09-16T14:45:39.906Z,5.90
2022-09-16T14:48:13.625Z,4.10
2022-09-16T14:50:47.967Z,5.10
2022-09-16T14:53:36.519Z,3.10
2022-09-16T14:56:19.505Z,3.70
2022-09-16T14:58:52.490Z,3.00
2022-09-16T15:01:28.012Z,3.10
2022-09-16T15:04:04.446Z,2.60
2022-09-16T15:06:46.985Z,2.80
2022-09-16T15:09:26.228Z,1.60
2022-09-16T15:12:01.033Z,1.70
2022-09-16T15:14:32.657Z,2.20
2022-09-16T15:17:05.117Z,2.40
2022-09-16T15:19:40.516Z,1.00
2022-09-16T15:22:15.970Z,1.20
2022-09-16T15:24:48.384Z,1.40
2022-09-16T15:27:29.068Z,1.90
2022-09-16T15:30:05.490Z,2.20
2022-09-16T15:32:46.316Z,1.90
2022-09-16T15:35:23.247Z,1.80
2022-09-16T15:37:55.214Z,3.10
2022-09-16T15:40:35.818Z,1.40
2022-09-16T15:43:13.930Z,1.50
2022-09-16T15:45:46.339Z,2.70
2022-09-16T15:48:20.806Z,2.60
2022-09-16T15:50:54.528Z,2.60
2022-09-16T15:53:38.752Z,2.70
2022-09-16T15:56:20.471Z,1.00
2022-09-16T15:58:55.969Z,2.50
2022-09-16T16:01:43.891Z,1.40
2022-09-16T16:04:25.919Z,1.00
2022-09-16T16:06:59.130Z,2.10
2022-09-16T16:09:42.487Z,1.30
2022-09-16T16:12:16.574Z,1.50
2022-09-16T16:14:47.941Z,2.40
2022-09-16T16:17:21.200Z,2.10
2022-09-16T16:19:52.843Z,2.00
2022-09-16T16:22:24.388Z,1.80
2022-09-16T16:24:55.634Z,2.20
2022-09-16T16:27:26.928Z,2.40
2022-09-16T16:29:57.870Z,1.90
2022-09-16T16:32:31.013Z,1.20
2022-09-16T16:35:02.301Z,1.80
2022-09-16T16:37:45.997Z,4.50
2022-09-16T16:40:18.788Z,16.70
2022-09-16T16:42:49.835Z,12.80
2022-09-16T16:45:21.249Z,12.80
2022-09-16T16:47:52.174Z,17.30
2022-09-16T16:50:23.114Z,13.20
2022-09-16T16:52:55.191Z,9.40
2022-09-16T16:55:26.229Z,9.90
2022-09-16T16:57:57.303Z,8.50
2022-09-16T17:00:29.030Z,9.60
2022-09-16T17:03:00.133Z,7.90
2022-09-16T17:05:31.133Z,7.50
2022-09-16T17:08:02.451Z,7.90
2022-09-16T17:10:33.638Z,8.10
2022-09-16T17:13:04.467Z,8.20
2022-09-16T17:15:35.790Z,6.70
2022-09-16T17:18:07.051Z,6.30
2022-09-16T17:20:38.234Z,5.00
2022-09-16T17:23:09.774Z,5.10
2022-09-16T17:25:40.923Z,4.80
2022-09-16T17:28:11.813Z,4.30
2022-09-16T17:30:45.633Z,5.90
2022-09-16T17:33:16.627Z,5.60
2022-09-16T17:35:47.788Z,4.30
2022-09-16T17:38:18.792Z,4.40
2022-09-16T17:40:49.831Z,4.10
2022-09-16T17:43:21.085Z,5.10
2022-09-16T17:45:53.524Z,4.60
2022-09-16T17:48:24.936Z,3.80
2022-09-16T17:50:57.101Z,2.90
2022-09-16T17:53:28.648Z,4.90
2022-09-16T17:56:07.073Z,3.60
2022-09-16T17:58:38.693Z,3.70
2022-09-16T18:01:12.420Z,3.50
2022-09-16T18:03:46.039Z,3.80
2022-09-16T18:06:19.217Z,5.10
2022-09-16T18:08:51.615Z,3.80
2022-09-16T18:11:24.337Z,3.40
2022-09-16T18:13:58.832Z,3.20
2022-09-16T18:16:30.904Z,3.80
2022-09-16T18:19:03.551Z,2.20
2022-09-16T18:21:35.051Z,2.80
2022-09-16T18:24:11.317Z,2.70
2022-09-16T18:26:43.282Z,3.80
2022-09-16T18:29:15.454Z,2.20
2022-09-16T18:31:49.055Z,2.40
2022-09-16T18:36:49.688Z,5.10
2022-09-16T18:39:21.339Z,3.60
2022-09-16T18:41:53.549Z,2.90
2022-09-16T18:44:25.226Z,2.70
2022-09-16T18:46:56.435Z,2.10
2022-09-16T18:49:29.172Z,2.70
2022-09-16T18:52:00.252Z,2.00
2022-09-16T18:54:33.322Z,3.40
2022-09-16T18:57:04.294Z,3.00
2022-09-16T18:59:36.872Z,4.10
2022-09-16T19:02:08.844Z,8.40
2022-09-16T19:04:42.928Z,8.40
2022-09-16T19:07:17.352Z,8.20
2022-09-16T19:09:48.934Z,8.10
2022-09-16T19:12:20.107Z,7.30
2022-09-16T19:14:54.338Z,8.00
2022-09-16T19:17:25.699Z,9.70
2022-09-16T19:19:57.247Z,7.80
2022-09-16T19:22:28.127Z,8.30
2022-09-16T19:24:58.880Z,6.50
2022-09-16T19:27:29.930Z,9.80
2022-09-16T19:30:00.950Z,32.10
2022-09-16T19:32:31.759Z,37.80
2022-09-16T19:35:02.969Z,34.40
2022-09-16T19:37:34.862Z,35.50
2022-09-16T19:40:06.537Z,33.60
2022-09-16T19:42:37.756Z,30.50
2022-09-16T19:45:10.397Z,37.40
2022-09-16T19:47:41.367Z,43.30
2022-09-16T19:50:12.893Z,41.80
2022-09-16T19:52:43.886Z,37.90
2022-09-16T19:55:14.799Z,40.70
2022-09-16T19:57:45.746Z,37.70
2022-09-16T20:00:17.389Z,36.60
2022-09-16T20:02:48.378Z,35.60
2022-09-16T20:05:19.502Z,35.40
2022-09-16T20:07:50.456Z,36.00
2022-09-16T20:10:21.944Z,36.70
2022-09-16T20:12:58.703Z,37.20
2022-09-16T20:15:30.226Z,33.90
2022-09-16T20:18:00.962Z,33.80
2022-09-16T20:20:32.349Z,29.40
2022-09-16T20:23:03.256Z,31.40
2022-09-16T20:25:34.194Z,29.50
2022-09-16T20:28:05.562Z,31.00
2022-09-16T20:30:36.319Z,27.40
2022-09-16T20:33:07.130Z,29.70
2022-09-16T20:35:37.868Z,26.10
2022-09-16T20:38:08.627Z,22.70
2022-09-16T20:40:39.887Z,27.90
2022-09-16T20:43:10.593Z,32.60
2022-09-16T20:45:41.714Z,26.90
2022-09-16T20:48:12.683Z,27.10
2022-09-16T20:50:43.420Z,26.80
2022-09-16T20:53:14.134Z,26.00
2022-09-16T20:55:44.797Z,25.80
2022-09-16T20:58:15.408Z,28.80
2022-09-16T21:00:46.075Z,30.40
2022-09-16T21:03:16.768Z,23.50
2022-09-16T21:05:47.442Z,25.60
2022-09-16T21:08:18.180Z,20.70
2022-09-16T21:10:48.920Z,23.60
2022-09-16T21:13:19.657Z,21.50
2022-09-16T21:15:59.273Z,22.50
2022-09-16T21:18:30.664Z,24.70
2022-09-16T21:21:06.134Z,17.30
2022-09-16T21:23:37.642Z,23.60
2022-09-16T21:26:12.646Z,20.90
2022-09-16T21:28:44.279Z,16.90
2022-09-16T21:31:18.548Z,20.00
2022-09-16T21:33:51.973Z,18.70
2022-09-16T21:36:24.447Z,18.60
2022-09-16T21:38:55.766Z,18.20
2022-09-16T21:41:27.147Z,18.70
2022-09-16T21:43:59.007Z,17.00
2022-09-16T21:46:31.949Z,16.90
2022-09-16T21:49:04.088Z,18.10
2022-09-16T21:51:38.660Z,15.60
2022-09-16T21:54:11.044Z,16.40
2022-09-16T21:56:42.896Z,16.60
2022-09-16T21:59:14.053Z,17.80
2022-09-16T22:01:45.150Z,14.80
2022-09-16T22:04:21.255Z,16.10
2022-09-16T22:06:53.988Z,14.60
2022-09-16T22:09:24.805Z,14.70
2022-09-16T22:11:56.262Z,17.80
2022-09-16T22:14:27.105Z,15.80
2022-09-16T22:16:57.813Z,17.70
2022-09-16T22:19:29.189Z,13.00
2022-09-16T22:21:59.929Z,12.30
2022-09-16T22:24:30.548Z,15.80
2022-09-16T22:27:01.308Z,14.00
2022-09-16T22:29:31.927Z,13.00
2022-09-16T22:32:02.883Z,11.50
2022-09-16T22:34:35.668Z,13.10
2022-09-16T22:37:06.304Z,11.90
2022-09-16T22:39:37.037Z,13.10
2022-09-16T22:42:08.781Z,13.20
2022-09-16T22:44:39.388Z,12.00
2022-09-16T22:47:10.285Z,11.50
2022-09-16T22:49:40.885Z,11.50
2022-09-16T22:52:11.533Z,11.10
2022-09-16T22:54:42.159Z,10.20
2022-09-16T22:57:12.936Z,12.70
2022-09-16T22:59:44.074Z,12.60
2022-09-16T23:02:14.807Z,11.40
2022-09-16T23:04:45.444Z,11.10
2022-09-16T23:07:16.085Z,10.00
2022-09-16T23:09:47.232Z,9.50
2022-09-16T23:12:17.860Z,9.20
2022-09-16T23:14:48.506Z,9.10
2022-09-16T23:17:19.235Z,9.80
2022-09-16T23:19:49.838Z,9.70
2022-09-16T23:22:20.931Z,9.30
2022-09-16T23:24:51.565Z,10.30
2022-09-16T23:27:22.187Z,9.60
2022-09-16T23:29:52.889Z,10.70
2022-09-16T23:32:23.656Z,9.10
2022-09-16T23:34:54.466Z,8.60
2022-09-16T23:37:25.219Z,8.80
2022-09-16T23:39:55.913Z,11.50
2022-09-16T23:42:27.331Z,9.00
2022-09-16T23:44:58.478Z,9.70
2022-09-16T23:47:29.102Z,8.40
2022-09-16T23:50:00.370Z,8.30
2022-09-16T23:52:31.052Z,7.40
2022-09-16T23:55:01.688Z,7.90
2022-09-16T23:57:33.360Z,9.20
